Time;durP1;ratioP1;P1;durP2;ratioP2;P2;SDS_P1;SDS_P2;PMS_P1;PMS_P2;Temp;Humidity;BMP_temperature;BMP_pressure;BME280_temperature;BME280_humidity;BME280_pressure;Samples;Min_cycle;Max_cycle;Signal;HPM_P1;HPM_P2
2021/12/10 00:02:02;;;;;;;12.82;2.03;;;8.90;99.90;;;;;;5065782;28;20063;-80
2021/12/10 00:04:33;;;;;;;8.07;1.52;;;8.90;99.90;;;;;;5065742;28;20041;-79
2021/12/10 00:07:03;;;;;;;8.45;1.50;;;8.90;99.90;;;;;;5065916;28;20027;-79
2021/12/10 00:09:36;;;;;;;9.73;1.60;;;8.90;99.90;;;;;;5064857;28;20024;-81
2021/12/10 00:12:11;;;;;;;14.35;1.85;;;8.90;99.90;;;;;;5065386;28;20091;-80
2021/12/10 00:14:37;;;;;;;6.78;1.63;;;8.90;99.90;;;;;;5049230;28;20056;-80
2021/12/10 00:17:05;;;;;;;8.45;1.67;;;8.80;99.90;;;;;;5066859;28;20300;-79
2021/12/10 00:19:37;;;;;;;9.35;1.63;;;8.80;99.90;;;;;;5048569;28;20048;-78
2021/12/10 00:22:08;;;;;;;8.85;1.65;;;8.80;99.90;;;;;;5065920;28;20032;-79
2021/12/10 00:24:35;;;;;;;11.32;1.40;;;8.80;99.90;;;;;;5049101;28;20062;-79
2021/12/10 00:27:05;;;;;;;7.47;1.25;;;8.80;99.90;;;;;;5065582;28;20033;-78
2021/12/10 00:29:33;;;;;;;5.75;1.30;;;8.80;99.90;;;;;;5066115;28;20052;-78
2021/12/10 00:32:08;;;;;;;7.20;1.30;;;8.80;99.90;;;;;;5048184;28;20040;-78
2021/12/10 00:34:43;;;;;;;10.23;1.80;;;8.80;99.90;;;;;;5064309;28;20016;-80
2021/12/10 00:37:13;;;;;;;11.07;1.48;;;8.80;99.90;;;;;;5066064;28;20056;-77
2021/12/10 00:39:44;;;;;;;8.75;1.40;;;8.70;99.90;;;;;;5063523;28;20104;-79
2021/12/10 00:42:18;;;;;;;6.13;1.35;;;8.70;99.90;;;;;;5066133;28;20032;-80
2021/12/10 00:44:44;;;;;;;8.38;1.23;;;8.80;99.90;;;;;;5048560;28;20096;-79
2021/12/10 00:47:10;;;;;;;8.82;1.70;;;8.80;99.90;;;;;;5065195;28;20025;-78
2021/12/10 00:49:36;;;;;;;11.07;1.20;;;8.80;99.80;;;;;;5065725;28;20246;-78
2021/12/10 00:52:04;;;;;;;9.68;1.35;;;8.80;99.80;;;;;;5064246;28;20044;-78
2021/12/10 00:54:30;;;;;;;6.18;1.15;;;8.70;99.60;;;;;;5047805;28;20017;-78
2021/12/10 00:56:56;;;;;;;5.15;1.20;;;8.70;99.10;;;;;;5065635;28;20033;-78
2021/12/10 00:59:22;;;;;;;3.92;0.70;;;8.70;98.90;;;;;;5063962;28;20358;-77
2021/12/10 01:01:49;;;;;;;3.90;0.80;;;8.70;99.10;;;;;;5047600;28;20016;-79
2021/12/10 01:04:21;;;;;;;4.13;0.75;;;8.70;98.50;;;;;;5064914;28;20086;-79
2021/12/10 01:06:51;;;;;;;8.95;1.13;;;8.70;98.30;;;;;;5048031;28;20333;-78
2021/12/10 01:09:23;;;;;;;3.58;0.90;;;8.70;98.70;;;;;;5047918;28;20323;-79
2021/12/10 01:11:51;;;;;;;;;;;8.70;98.50;;;;;;5047569;28;20334;-79
2021/12/10 01:14:37;;;;;;;4.97;0.90;;;8.60;98.90;;;;;;5065405;28;20230;-80
2021/12/10 01:25:54;;;;;;;5.90;1.00;;;8.40;99.40;;;;;;5050384;28;20100;-79
2021/12/10 01:28:08;;;;;;;5.35;0.90;;;8.40;99.70;;;;;;5050612;28;20025;-79
2021/12/10 01:30:39;;;;;;;5.97;1.13;;;8.30;99.70;;;;;;5047365;28;20020;-78
2021/12/10 01:33:10;;;;;;;5.30;0.93;;;8.30;99.80;;;;;;5063757;28;20044;-78
2021/12/10 01:35:40;;;;;;;4.32;1.15;;;8.20;99.80;;;;;;5064833;28;20257;-78
2021/12/10 01:38:07;;;;;;;6.03;1.25;;;8.20;99.80;;;;;;5063557;28;20275;-78
2021/12/10 01:40:35;;;;;;;4.30;0.90;;;8.20;99.40;;;;;;5045505;28;20096;-77
2021/12/10 01:43:07;;;;;;;4.30;0.98;;;8.10;99.30;;;;;;5047408;28;20096;-77
2021/12/10 01:45:46;;;;;;;4.28;1.05;;;8.10;98.30;;;;;;5046773;28;20107;-77
2021/12/10 01:48:16;;;;;;;6.28;0.90;;;8.00;98.00;;;;;;5063902;28;20026;-79
2021/12/10 01:50:42;;;;;;;3.35;0.60;;;7.90;98.10;;;;;;5047221;28;20041;-78
2021/12/10 01:53:12;;;;;;;7.80;0.88;;;7.90;98.20;;;;;;5063139;28;20024;-78
2021/12/10 01:55:44;;;;;;;2.40;0.63;;;7.80;98.40;;;;;;5063676;28;20025;-79
2021/12/10 01:58:12;;;;;;;7.70;1.10;;;7.80;98.60;;;;;;5047330;28;20266;-78
2021/12/10 02:00:44;;;;;;;6.22;1.00;;;7.90;98.80;;;;;;5046801;28;20044;-78
2021/12/10 02:03:10;;;;;;;4.78;1.00;;;7.70;99.00;;;;;;5046738;28;20087;-80
2021/12/10 02:05:36;;;;;;;6.85;1.35;;;7.70;99.30;;;;;;5063376;28;20025;-78
2021/12/10 02:08:03;;;;;;;7.68;0.90;;;7.70;99.50;;;;;;5064460;28;20029;-78
2021/12/10 02:10:29;;;;;;;8.10;0.90;;;7.60;99.80;;;;;;5063098;28;20020;-79
2021/12/10 02:12:57;;;;;;;6.25;0.95;;;7.60;99.90;;;;;;5064009;28;20209;-78
2021/12/10 02:15:27;;;;;;;10.77;1.58;;;7.50;99.90;;;;;;5064381;28;20048;-79
2021/12/10 02:17:56;;;;;;;12.68;1.55;;;7.50;99.90;;;;;;5063170;28;20029;-80
2021/12/10 02:20:28;;;;;;;16.58;1.23;;;7.50;99.90;;;;;;5047143;28;20021;-78
2021/12/10 02:22:54;;;;;;;13.48;1.38;;;7.50;99.90;;;;;;5045499;28;20025;-78
2021/12/10 02:25:26;;;;;;;10.02;1.38;;;7.60;99.90;;;;;;5063111;28;20025;-79
2021/12/10 02:27:51;;;;;;;;;;;7.50;99.90;;;;;;5064913;28;20029;-77
2021/12/10 02:30:19;;;;;;;4.90;1.20;;;7.60;99.90;;;;;;5064153;28;20206;-79
2021/12/10 02:32:45;;;;;;;15.30;2.25;;;7.50;99.60;;;;;;5045913;28;20304;-78
2021/12/10 02:35:13;;;;;;;11.32;1.85;;;7.50;99.50;;;;;;5063933;28;20023;-79
2021/12/10 02:37:42;;;;;;;12.38;1.83;;;7.50;99.10;;;;;;5062599;28;20048;-78
2021/12/10 02:40:11;;;;;;;12.32;1.15;;;7.50;98.90;;;;;;5046054;28;20017;-79
2021/12/10 02:42:37;;;;;;;11.52;1.13;;;7.50;99.00;;;;;;5060810;28;20025;-78
2021/12/10 02:45:06;;;;;;;16.00;1.70;;;7.50;98.60;;;;;;5062795;28;20040;-78
2021/12/10 02:47:32;;;;;;;10.85;0.95;;;7.50;98.50;;;;;;5045901;28;20071;-77
2021/12/10 02:49:58;;;;;;;11.98;1.67;;;7.40;98.60;;;;;;5064004;28;20296;-78
2021/12/10 02:52:26;;;;;;;9.32;1.15;;;7.40;98.50;;;;;;5061551;28;20035;-78
2021/12/10 02:54:52;;;;;;;7.60;1.02;;;7.40;98.20;;;;;;5063990;28;20021;-79
2021/12/10 02:57:19;;;;;;;13.07;2.53;;;7.40;98.10;;;;;;5062186;28;20032;-78
2021/12/10 02:59:45;;;;;;;12.63;2.00;;;7.40;98.10;;;;;;5062305;28;20176;-78
2021/12/10 03:02:18;;;;;;;18.08;2.08;;;7.40;97.90;;;;;;5061852;28;20021;-78
2021/12/10 03:04:45;;;;;;;12.52;1.50;;;7.40;97.90;;;;;;5064450;28;20021;-78
2021/12/10 03:07:15;;;;;;;9.35;1.60;;;7.40;97.60;;;;;;5046618;28;20096;-77
2021/12/10 03:09:44;;;;;;;6.20;1.20;;;7.50;97.80;;;;;;5063836;28;20021;-77
2021/12/10 03:12:12;;;;;;;8.13;1.23;;;7.10;99.00;;;;;;5064254;28;20140;-75
2021/12/10 03:14:45;;;;;;;11.23;1.88;;;6.90;99.70;;;;;;5046792;28;20062;-76
2021/12/10 03:17:17;;;;;;;8.73;1.27;;;6.60;99.90;;;;;;5046589;28;20032;-77
2021/12/10 03:19:44;;;;;;;8.65;1.27;;;6.60;99.90;;;;;;5062507;28;20052;-78
2021/12/10 03:22:09;;;;;;;11.27;1.80;;;6.50;99.90;;;;;;5044921;28;20029;-78
2021/12/10 03:24:36;;;;;;;9.35;1.63;;;6.60;99.90;;;;;;5045969;28;20021;-78
2021/12/10 03:27:05;;;;;;;13.30;1.95;;;6.60;99.90;;;;;;5063522;28;20067;-79
2021/12/10 03:29:35;;;;;;;11.27;1.80;;;6.60;99.90;;;;;;5062322;28;20029;-78
2021/12/10 03:32:05;;;;;;;9.70;1.23;;;6.60;99.90;;;;;;5061586;28;20086;-79
2021/12/10 03:34:30;;;;;;;8.48;1.42;;;6.60;99.90;;;;;;5045553;28;20086;-77
2021/12/10 03:36:57;;;;;;;9.23;1.40;;;6.60;99.90;;;;;;5061733;28;20048;-78
2021/12/10 03:39:25;;;;;;;11.45;2.03;;;6.50;99.90;;;;;;5045445;28;20025;-78
2021/12/10 03:41:52;;;;;;;12.55;1.63;;;6.60;99.90;;;;;;5062824;28;20020;-77
2021/12/10 03:44:18;;;;;;;12.15;2.00;;;6.60;99.90;;;;;;5044263;28;20028;-78
2021/12/10 03:46:44;;;;;;;8.50;1.55;;;6.60;99.90;;;;;;5063123;28;20216;-80
2021/12/10 03:49:12;;;;;;;14.82;2.05;;;6.60;99.90;;;;;;5045064;28;20016;-78
2021/12/10 03:51:38;;;;;;;6.40;1.40;;;6.70;99.90;;;;;;5045339;28;20029;-78
2021/12/10 03:54:05;;;;;;;15.32;2.00;;;6.70;99.90;;;;;;5061018;28;20346;-79
2021/12/10 03:56:33;;;;;;;6.03;1.10;;;6.80;99.80;;;;;;5062172;28;20096;-77
2021/12/10 03:59:01;;;;;;;6.65;1.38;;;6.80;99.80;;;;;;5062731;28;20021;-77
2021/12/10 04:01:31;;;;;;;10.60;1.48;;;6.80;99.60;;;;;;5062113;28;20215;-77
2021/12/10 04:03:59;;;;;;;11.32;1.98;;;6.90;99.30;;;;;;5061426;28;20024;-78
2021/12/10 04:06:27;;;;;;;8.00;1.42;;;7.00;98.90;;;;;;5062083;28;20025;-77
2021/12/10 04:08:53;;;;;;;11.85;1.55;;;7.00;99.00;;;;;;5062877;28;20246;-78
2021/12/10 04:11:19;;;;;;;7.10;1.23;;;7.00;98.80;;;;;;5065131;28;20047;-76
2021/12/10 04:13:48;;;;;;;10.73;2.05;;;7.00;98.80;;;;;;5065282;28;20021;-77
2021/12/10 04:16:17;;;;;;;5.40;0.68;;;7.00;99.00;;;;;;5049304;28;20308;-78
2021/12/10 04:18:44;;;;;;;5.20;1.20;;;6.80;98.40;;;;;;5066458;28;20212;-78
2021/12/10 04:21:09;;;;;;;8.77;0.93;;;6.60;99.40;;;;;;5048995;28;20032;-75
2021/12/10 04:23:36;;;;;;;9.02;1.20;;;6.20;99.90;;;;;;5065703;28;20048;-76
2021/12/10 04:26:03;;;;;;;6.78;0.93;;;6.00;99.90;;;;;;5066540;28;20024;-75
2021/12/10 04:28:28;;;;;;;7.25;1.00;;;5.70;99.90;;;;;;5065361;28;20115;-75
2021/12/10 04:30:55;;;;;;;5.70;0.93;;;5.60;99.90;;;;;;5065424;28;20323;-75
2021/12/10 04:33:23;;;;;;;8.30;1.08;;;5.50;99.90;;;;;;5065219;28;20029;-73
2021/12/10 04:35:52;;;;;;;7.68;1.30;;;5.30;99.90;;;;;;5066336;28;20016;-75
2021/12/10 04:38:21;;;;;;;11.15;1.35;;;5.20;99.90;;;;;;5064997;28;20047;-74
2021/12/10 04:40:49;;;;;;;6.63;1.10;;;5.20;99.90;;;;;;5065135;28;20251;-74
2021/12/10 04:43:17;;;;;;;7.00;1.20;;;5.20;99.90;;;;;;5045978;28;20311;-76
2021/12/10 04:45:43;;;;;;;7.80;1.13;;;5.20;99.90;;;;;;5065538;28;20029;-76
2021/12/10 04:48:09;;;;;;;9.43;1.05;;;5.10;99.90;;;;;;5064811;28;20028;-77
2021/12/10 04:50:35;;;;;;;14.68;3.00;;;5.10;99.90;;;;;;5048370;28;20025;-75
2021/12/10 04:53:01;;;;;;;5.90;1.25;;;5.10;99.90;;;;;;5065200;28;20036;-76
2021/12/10 04:55:27;;;;;;;5.40;1.52;;;5.30;99.90;;;;;;5064704;28;20237;-75
2021/12/10 04:57:53;;;;;;;5.18;0.80;;;5.40;99.90;;;;;;5064803;28;20017;-75
2021/12/10 05:00:27;;;;;;;8.18;1.40;;;5.40;99.90;;;;;;5064748;28;20080;-77
2021/12/10 05:02:54;;;;;;;9.65;1.33;;;5.40;99.90;;;;;;5065054;28;20185;-76
2021/12/10 05:05:20;;;;;;;5.90;0.77;;;5.40;99.90;;;;;;5064318;28;20084;-77
2021/12/10 05:07:46;;;;;;;5.25;0.63;;;5.40;99.90;;;;;;5065739;28;20204;-76
2021/12/10 05:10:14;;;;;;;7.00;1.08;;;5.30;99.90;;;;;;5065170;28;20025;-76
2021/12/10 05:12:41;;;;;;;5.95;1.17;;;5.20;99.90;;;;;;5064235;28;20239;-76
2021/12/10 05:15:10;;;;;;;3.28;0.85;;;5.20;99.90;;;;;;5064310;28;20369;-78
2021/12/10 05:17:38;;;;;;;7.60;0.90;;;5.20;99.90;;;;;;5047817;28;20017;-77
2021/12/10 05:20:12;;;;;;;7.18;1.15;;;5.20;99.90;;;;;;5047605;28;20104;-77
2021/12/10 05:22:41;;;;;;;8.90;1.00;;;5.30;99.90;;;;;;5063645;28;20025;-76
2021/12/10 05:25:08;;;;;;;5.40;0.90;;;5.30;99.90;;;;;;5064123;28;20025;-77
2021/12/10 05:27:34;;;;;;;5.90;1.15;;;5.30;99.90;;;;;;5065445;28;20021;-78
2021/12/10 05:30:00;;;;;;;9.50;1.17;;;5.40;99.90;;;;;;5064142;28;20071;-77
2021/12/10 05:32:26;;;;;;;10.75;1.65;;;5.40;99.90;;;;;;5047230;28;20025;-76
2021/12/10 05:34:52;;;;;;;7.03;1.50;;;5.40;99.90;;;;;;5064763;28;20031;-77
2021/12/10 05:37:18;;;;;;;8.15;1.20;;;5.40;99.90;;;;;;5047285;28;20079;-78
2021/12/10 05:39:44;;;;;;;6.80;1.40;;;5.30;99.90;;;;;;5063701;28;20052;-77
2021/12/10 05:42:10;;;;;;;6.13;0.98;;;5.40;99.90;;;;;;5064981;28;20106;-77
2021/12/10 05:44:38;;;;;;;9.20;1.42;;;5.30;99.90;;;;;;5045192;28;20025;-76
2021/12/10 05:47:04;;;;;;;3.35;0.95;;;5.40;99.90;;;;;;5064214;28;20016;-77
2021/12/10 05:49:30;;;;;;;9.70;1.23;;;5.40;99.90;;;;;;5063509;28;20024;-77
2021/12/10 05:51:56;;;;;;;6.88;1.52;;;5.40;99.90;;;;;;5046446;28;20028;-78
2021/12/10 05:54:22;;;;;;;11.50;1.25;;;5.40;99.90;;;;;;5064604;28;20063;-76
2021/12/10 05:56:48;;;;;;;8.60;0.93;;;5.40;99.90;;;;;;5063601;28;20208;-76
2021/12/10 05:59:13;;;;;;;8.25;1.42;;;5.50;99.90;;;;;;5063264;28;20025;-76
2021/12/10 06:01:39;;;;;;;9.40;1.60;;;5.50;99.90;;;;;;5063581;28;20048;-77
2021/12/10 06:04:05;;;;;;;8.65;1.20;;;5.40;99.90;;;;;;5063490;28;20201;-77
2021/12/10 06:06:32;;;;;;;6.95;1.50;;;5.50;99.90;;;;;;5063103;28;20327;-76
2021/12/10 06:09:01;;;;;;;9.18;0.90;;;5.60;99.90;;;;;;5063191;28;20032;-77
2021/12/10 06:11:28;;;;;;;10.90;1.10;;;5.60;99.90;;;;;;5062970;28;20216;-75
2021/12/10 06:13:54;;;;;;;8.43;1.23;;;5.60;99.90;;;;;;5063348;28;20024;-77
2021/12/10 06:16:20;;;;;;;8.95;1.30;;;5.60;99.90;;;;;;5064233;28;20088;-77
2021/12/10 06:18:47;;;;;;;7.80;1.23;;;5.50;99.90;;;;;;5046450;28;20248;-77
2021/12/10 06:21:14;;;;;;;9.73;1.13;;;5.60;99.90;;;;;;5062976;28;20047;-79
2021/12/10 06:23:39;;;;;;;13.95;2.08;;;5.60;99.90;;;;;;5045767;28;20054;-78
2021/12/10 06:26:05;;;;;;;7.05;1.00;;;5.60;99.90;;;;;;5062915;28;20052;-77
2021/12/10 06:28:32;;;;;;;10.00;1.15;;;5.60;99.90;;;;;;5064202;28;20258;-77
2021/12/10 06:31:01;;;;;;;8.80;1.10;;;5.60;99.90;;;;;;5062654;28;20025;-79
2021/12/10 06:33:29;;;;;;;11.65;1.38;;;5.50;99.90;;;;;;5061644;28;20033;-79
2021/12/10 06:36:00;;;;;;;9.93;1.15;;;5.60;99.90;;;;;;5062663;28;20020;-77
2021/12/10 06:38:27;;;;;;;5.18;1.05;;;5.50;99.90;;;;;;5063503;28;20048;-78
2021/12/10 06:40:53;;;;;;;13.30;1.50;;;5.50;99.90;;;;;;5062090;28;20086;-77
2021/12/10 06:43:21;;;;;;;7.63;1.13;;;5.50;99.90;;;;;;5045876;28;20077;-79
2021/12/10 06:45:48;;;;;;;7.93;1.67;;;5.50;99.90;;;;;;5060589;28;20017;-79
2021/12/10 06:48:15;;;;;;;8.50;1.15;;;5.50;99.90;;;;;;5062836;28;20127;-78
2021/12/10 06:50:46;;;;;;;5.63;1.02;;;5.60;99.90;;;;;;5063434;28;20017;-79
2021/12/10 06:53:14;;;;;;;7.13;1.23;;;5.60;99.90;;;;;;5045365;28;20366;-78
2021/12/10 06:55:40;;;;;;;4.68;0.73;;;5.60;99.90;;;;;;5062379;28;20085;-79
2021/12/10 06:58:07;;;;;;;4.63;0.88;;;5.60;99.90;;;;;;5062594;28;20029;-78
2021/12/10 07:00:55;;;;;;;5.90;0.88;;;5.70;99.90;;;;;;5045648;28;20062;-78
2021/12/10 07:03:24;;;;;;;4.32;0.77;;;5.60;99.90;;;;;;5062424;28;20131;-77
2021/12/10 07:05:52;;;;;;;6.97;0.75;;;5.50;99.90;;;;;;5062240;28;20035;-78
2021/12/10 07:08:18;;;;;;;2.97;0.50;;;5.50;99.90;;;;;;5062425;28;20021;-77
2021/12/10 07:10:45;;;;;;;5.78;0.70;;;5.50;99.90;;;;;;5062242;28;20031;-78
2021/12/10 07:13:12;;;;;;;3.95;0.70;;;5.50;99.90;;;;;;5063148;28;20025;-78
2021/12/10 07:15:41;;;;;;;1.50;0.57;;;5.50;99.90;;;;;;5063390;28;20021;-78
2021/12/10 07:18:07;;;;;;;2.53;0.63;;;5.50;99.90;;;;;;5062489;28;20032;-78
2021/12/10 07:20:34;;;;;;;5.50;1.00;;;5.60;99.90;;;;;;5061874;28;20425;-80
2021/12/10 07:23:00;;;;;;;4.60;0.73;;;5.60;99.90;;;;;;5062718;28;20024;-79
2021/12/10 07:25:26;;;;;;;4.30;0.75;;;5.60;99.90;;;;;;5063390;28;20067;-79
2021/12/10 07:27:52;;;;;;;7.03;0.77;;;5.70;99.90;;;;;;5045549;28;20250;-76
2021/12/10 07:30:21;;;;;;;5.43;1.23;;;5.70;99.90;;;;;;5063239;28;20028;-80
2021/12/10 07:32:47;;;;;;;4.40;0.73;;;5.80;99.90;;;;;;5061784;28;20033;-80
2021/12/10 07:35:14;;;;;;;5.45;0.80;;;5.80;99.90;;;;;;5061887;28;20214;-78
2021/12/10 07:37:40;;;;;;;3.67;0.68;;;5.80;99.90;;;;;;5062987;28;20044;-77
2021/12/10 07:40:09;;;;;;;4.78;0.70;;;5.70;99.90;;;;;;5062929;28;20028;-78
2021/12/10 07:42:35;;;;;;;3.88;0.70;;;5.60;99.90;;;;;;5045104;28;20020;-78
2021/12/10 07:45:02;;;;;;;10.50;1.50;;;5.50;99.90;;;;;;5065095;28;20021;-79
2021/12/10 07:47:33;;;;;;;5.13;0.90;;;5.50;99.90;;;;;;5063546;28;20020;-79
2021/12/10 07:49:59;;;;;;;5.57;1.00;;;5.40;99.90;;;;;;5050138;28;20025;-79
2021/12/10 07:52:27;;;;;;;3.33;0.55;;;5.40;99.90;;;;;;5065358;28;20040;-79
2021/12/10 07:54:55;;;;;;;3.70;0.88;;;5.40;99.90;;;;;;5049805;28;20020;-80
2021/12/10 07:57:22;;;;;;;5.25;0.98;;;5.40;99.90;;;;;;5065613;28;20031;-79
2021/12/10 07:59:49;;;;;;;4.43;1.15;;;5.30;99.90;;;;;;5049114;28;20023;-79
2021/12/10 08:02:16;;;;;;;4.93;0.93;;;5.30;99.90;;;;;;5048975;28;20021;-81
2021/12/10 08:04:42;;;;;;;5.95;1.27;;;5.30;99.90;;;;;;5065489;28;20066;-78
2021/12/10 08:07:10;;;;;;;3.85;0.70;;;5.30;99.90;;;;;;5043657;28;20097;-77
2021/12/10 08:09:36;;;;;;;5.50;0.68;;;5.20;99.90;;;;;;5072303;28;20024;-77
2021/12/10 08:12:02;;;;;;;4.32;0.70;;;5.20;99.90;;;;;;5065884;28;20082;-80
2021/12/10 08:14:27;;;;;;;7.05;0.80;;;5.20;99.90;;;;;;5060410;28;20028;-81
2021/12/10 08:16:53;;;;;;;6.38;1.05;;;5.20;99.90;;;;;;5013933;28;20040;-78
2021/12/10 08:19:18;;;;;;;2.17;0.70;;;5.20;99.90;;;;;;5045293;28;20025;-81
2021/12/10 08:21:44;;;;;;;6.75;1.30;;;5.20;99.90;;;;;;5046556;28;20030;-81
2021/12/10 08:24:11;;;;;;;2.97;0.55;;;5.20;99.90;;;;;;5028478;28;20021;-80
2021/12/10 08:26:37;;;;;;;8.80;1.98;;;5.20;99.90;;;;;;5028823;28;20029;-80
2021/12/10 08:29:06;;;;;;;4.05;0.57;;;5.20;99.90;;;;;;5053568;28;20039;-81
2021/12/10 08:31:32;;;;;;;6.60;0.98;;;5.20;99.90;;;;;;5045042;28;20032;-81
2021/12/10 08:33:58;;;;;;;6.97;0.95;;;5.30;99.90;;;;;;5038686;28;20021;-78
2021/12/10 08:36:25;;;;;;;6.10;0.93;;;5.30;99.90;;;;;;5064810;28;20096;-80
2021/12/10 08:38:51;;;;;;;2.90;0.68;;;5.30;99.90;;;;;;5064570;28;20271;-80
2021/12/10 08:41:23;;;;;;;3.88;1.10;;;5.30;99.90;;;;;;5065605;28;20375;-80
2021/12/10 08:43:50;;;;;;;6.88;1.00;;;5.40;99.90;;;;;;5058529;28;20036;-79
2021/12/10 08:46:19;;;;;;;8.48;1.35;;;5.40;99.90;;;;;;5027342;28;20067;-78
2021/12/10 08:48:47;;;;;;;3.78;1.00;;;5.40;99.90;;;;;;5048878;28;20021;-78
2021/12/10 08:51:20;;;;;;;7.63;1.42;;;5.40;99.90;;;;;;5060981;28;20025;-80
2021/12/10 08:53:48;;;;;;;8.07;1.10;;;5.50;99.90;;;;;;5047084;28;20033;-79
2021/12/10 08:56:15;;;;;;;2.78;0.82;;;5.60;99.70;;;;;;5031445;28;20066;-81
2021/12/10 08:58:41;;;;;;;10.02;1.20;;;5.70;99.70;;;;;;5061739;28;20090;-79
2021/12/10 09:01:14;;;;;;;8.60;0.88;;;5.70;99.30;;;;;;5046193;28;20069;-79
2021/12/10 09:03:43;;;;;;;7.75;0.70;;;5.70;99.40;;;;;;5066865;28;20031;-80
2021/12/10 09:06:10;;;;;;;4.68;0.70;;;5.70;99.50;;;;;;5062066;28;20045;-81
2021/12/10 09:08:36;;;;;;;10.40;2.25;;;5.70;99.30;;;;;;5064177;28;20066;-80
2021/12/10 09:11:03;;;;;;;4.20;1.48;;;5.70;99.10;;;;;;5062372;28;20242;-80
2021/12/10 09:13:28;;;;;;;2.55;1.13;;;5.80;98.80;;;;;;5063921;28;20040;-79
2021/12/10 09:16:00;;;;;;;6.22;0.80;;;5.80;98.80;;;;;;5064021;28;20278;-80
2021/12/10 09:18:27;;;;;;;5.82;0.82;;;5.90;98.70;;;;;;5064281;28;20048;-81
2021/12/10 09:20:57;;;;;;;4.18;0.50;;;5.90;99.10;;;;;;5063781;28;20033;-79
2021/12/10 09:23:25;;;;;;;1.67;0.32;;;5.80;98.50;;;;;;5046582;28;20029;-79
2021/12/10 09:25:53;;;;;;;3.10;0.43;;;5.90;98.70;;;;;;5047113;28;20025;-79
2021/12/10 09:28:20;;;;;;;2.25;0.50;;;5.90;98.70;;;;;;5047228;28;20095;-80
2021/12/10 09:30:49;;;;;;;0.82;0.40;;;5.90;98.60;;;;;;5061501;28;20020;-77
2021/12/10 09:33:15;;;;;;;6.82;0.57;;;6.00;98.50;;;;;;5060018;28;20076;-75
2021/12/10 09:35:41;;;;;;;3.25;0.40;;;6.00;98.70;;;;;;5044153;28;20185;-75
2021/12/10 09:38:08;;;;;;;1.95;0.75;;;6.00;99.00;;;;;;5060927;28;20079;-77
2021/12/10 09:40:39;;;;;;;8.52;0.80;;;6.00;98.80;;;;;;5062833;28;20037;-78
2021/12/10 09:43:07;;;;;;;7.25;1.13;;;6.10;98.80;;;;;;5059120;28;20029;-72
2021/12/10 09:45:36;;;;;;;4.32;0.73;;;6.10;98.90;;;;;;5054427;28;20029;-74
2021/12/10 09:48:04;;;;;;;5.05;0.50;;;6.10;98.70;;;;;;5059326;28;20047;-75
2021/12/10 09:50:34;;;;;;;3.97;0.88;;;6.10;98.70;;;;;;5063851;28;20078;-72
2021/12/10 09:53:00;;;;;;;2.40;0.88;;;6.20;98.60;;;;;;5061593;28;20032;-74
2021/12/10 09:55:28;;;;;;;3.75;0.70;;;6.20;99.00;;;;;;5062751;28;20079;-74
2021/12/10 09:57:54;;;;;;;4.70;0.88;;;6.30;98.80;;;;;;5046569;28;20025;-75
2021/12/10 10:00:32;;;;;;;4.10;1.20;;;6.30;98.60;;;;;;5062627;28;20036;-75
2021/12/10 10:02:59;;;;;;;5.40;0.90;;;6.40;98.20;;;;;;5063430;28;20100;-76
2021/12/10 10:05:27;;;;;;;5.68;0.95;;;6.40;98.20;;;;;;5046261;28;20025;-75
2021/12/10 10:07:58;;;;;;;4.55;0.88;;;6.50;97.80;;;;;;5065988;28;20020;-76
2021/12/10 10:10:26;;;;;;;3.58;0.68;;;6.60;97.50;;;;;;5069230;28;20193;-76
2021/12/10 10:12:54;;;;;;;6.97;0.90;;;6.70;97.30;;;;;;5063558;28;20033;-73
2021/12/10 10:15:24;;;;;;;7.05;0.80;;;6.80;96.70;;;;;;5061825;28;20036;-73
2021/12/10 10:17:51;;;;;;;6.25;0.90;;;6.90;96.90;;;;;;5060155;28;20024;-73
2021/12/10 10:20:23;;;;;;;5.15;0.68;;;7.00;96.60;;;;;;5063309;28;20231;-73
2021/12/10 10:22:49;;;;;;;6.07;1.10;;;7.10;96.50;;;;;;5060609;28;20092;-77
2021/12/10 10:25:19;;;;;;;6.05;1.20;;;7.20;96.60;;;;;;5062840;28;20025;-79
2021/12/10 10:27:46;;;;;;;7.80;1.02;;;7.30;96.40;;;;;;5063318;28;20023;-78
2021/12/10 10:30:30;;;;;;;5.05;0.90;;;7.30;95.90;;;;;;5062747;28;20029;-76
2021/12/10 10:32:58;;;;;;;6.95;1.30;;;7.40;95.80;;;;;;5061198;28;20056;-71
2021/12/10 10:35:30;;;;;;;2.38;0.82;;;7.50;95.90;;;;;;5061142;28;20196;-73
2021/12/10 10:37:58;;;;;;;;;;;7.60;95.50;;;;;;5062584;28;20049;-73
2021/12/10 10:40:30;;;;;;;8.10;1.17;;;7.60;95.20;;;;;;5058218;28;20250;-74
2021/12/10 10:42:55;;;;;;;6.38;1.00;;;7.50;95.10;;;;;;5042984;28;20100;-74
2021/12/10 10:45:26;;;;;;;6.40;0.98;;;7.60;95.90;;;;;;5042849;28;20056;-74
2021/12/10 10:47:56;;;;;;;7.93;1.20;;;7.70;94.90;;;;;;5043023;28;20025;-75
2021/12/10 10:50:26;;;;;;;7.40;1.15;;;7.70;95.30;;;;;;5054654;28;20294;-73
2021/12/10 10:52:57;;;;;;;5.60;1.20;;;7.70;95.00;;;;;;5042453;28;20049;-77
2021/12/10 10:55:35;;;;;;;7.35;1.00;;;7.70;95.10;;;;;;5014264;28;20024;-73
2021/12/10 10:58:06;;;;;;;7.72;1.05;;;7.60;94.90;;;;;;5054332;28;20040;-74
2021/12/10 11:01:13;;;;;;;3.88;0.77;;;7.60;95.20;;;;;;5052131;28;20028;-75
2021/12/10 11:03:46;;;;;;;6.32;1.08;;;7.50;95.60;;;;;;5061861;28;20070;-76
2021/12/10 11:06:16;;;;;;;7.43;1.17;;;7.50;95.90;;;;;;5062504;28;20036;-72
2021/12/10 11:08:48;;;;;;;7.18;1.73;;;7.40;96.10;;;;;;5045086;28;20303;-76
2021/12/10 11:11:15;;;;;;;;;;;7.40;96.40;;;;;;5062794;28;20039;-75
2021/12/10 11:14:02;;;;;;;5.20;0.98;;;7.30;96.10;;;;;;5061530;28;19913;-75
2021/12/10 11:16:33;;;;;;;8.20;1.25;;;7.30;96.40;;;;;;5062569;28;20027;-77
2021/12/10 11:19:20;;;;;;;8.80;1.30;;;7.30;96.20;;;;;;5060277;28;20036;-77
2021/12/10 11:21:54;;;;;;;6.70;1.00;;;7.30;96.10;;;;;;5049795;28;20291;-73
2021/12/10 11:24:30;;;;;;;10.00;1.35;;;7.40;95.70;;;;;;5042757;28;20025;-77
2021/12/10 11:27:03;;;;;;;10.75;0.93;;;7.40;95.60;;;;;;5044868;28;20135;-75
2021/12/10 11:29:47;;;;;;;9.10;1.20;;;7.60;95.70;;;;;;5061786;28;20098;-72
2021/12/10 11:32:37;;;;;;;6.10;1.80;;;7.70;95.80;;;;;;5062449;28;20059;-75
2021/12/10 11:35:24;;;;;;;9.95;0.90;;;7.80;95.10;;;;;;5047857;28;20029;-76
2021/12/10 11:37:56;;;;;;;8.02;0.93;;;7.80;94.90;;;;;;5064062;28;20237;-74
2021/12/10 11:40:36;;;;;;;11.52;1.25;;;7.80;94.90;;;;;;5057697;28;20033;-73
2021/12/10 11:43:19;;;;;;;8.32;1.42;;;7.80;95.20;;;;;;5042454;28;20027;-75
2021/12/10 11:46:02;;;;;;;2.80;0.47;;;7.70;95.50;;;;;;5042425;28;20085;-73
2021/12/10 11:48:29;;;;;;;5.82;1.23;;;7.80;94.50;;;;;;5042936;28;20100;-73
2021/12/10 11:51:11;;;;;;;8.18;1.30;;;7.80;94.70;;;;;;5059543;28;20185;-74
2021/12/10 11:53:46;;;;;;;7.80;1.35;;;8.00;94.50;;;;;;5056055;28;20041;-75
2021/12/10 11:56:18;;;;;;;7.40;0.95;;;8.10;94.50;;;;;;5042431;28;20234;-76
2021/12/10 11:58:56;;;;;;;5.43;0.88;;;8.10;94.10;;;;;;5042330;28;20025;-72
2021/12/10 12:01:22;;;;;;;13.75;1.55;;;8.10;94.30;;;;;;5060759;28;20025;-74
2021/12/10 12:03:48;;;;;;;5.95;1.02;;;8.20;94.40;;;;;;5061991;28;20091;-72
2021/12/10 12:06:18;;;;;;;8.77;1.45;;;8.20;94.00;;;;;;5062313;28;20032;-75
2021/12/10 12:08:44;;;;;;;22.25;1.70;;;8.20;93.70;;;;;;5057331;28;20339;-76
2021/12/10 12:11:11;;;;;;;5.72;1.00;;;8.10;94.30;;;;;;5059168;28;20094;-73
2021/12/10 12:13:40;;;;;;;13.13;1.60;;;8.10;94.20;;;;;;5061545;28;20040;-73
2021/12/10 12:16:13;;;;;;;8.93;1.08;;;8.00;94.20;;;;;;5060466;28;20109;-74
2021/12/10 12:18:52;;;;;;;13.13;1.20;;;7.90;94.50;;;;;;5059890;28;20300;-72
2021/12/10 12:27:16;;;;;;;11.18;0.90;;;8.00;94.60;;;;;;5039677;28;20022;-75
2021/12/10 12:29:52;;;;;;;3.85;0.90;;;8.10;94.50;;;;;;5041535;28;20029;-77
2021/12/10 12:32:32;;;;;;;6.35;1.00;;;8.10;94.30;;;;;;5033533;28;20033;-73
2021/12/10 12:35:13;;;;;;;13.07;1.27;;;8.20;94.40;;;;;;5043232;28;20037;-75
2021/12/10 12:37:39;;;;;;;4.32;0.85;;;8.20;94.40;;;;;;5062232;28;20218;-74
2021/12/10 12:40:06;;;;;;;13.65;1.58;;;8.30;94.10;;;;;;5063978;28;20051;-74
2021/12/10 12:42:35;;;;;;;6.53;1.25;;;8.30;94.10;;;;;;5063917;28;20299;-75
2021/12/10 12:45:07;;;;;;;7.88;1.42;;;8.20;94.10;;;;;;5064085;28;20084;-74
2021/12/10 12:47:37;;;;;;;6.57;1.20;;;8.20;94.10;;;;;;5064277;28;20021;-75
2021/12/10 12:50:20;;;;;;;5.20;1.05;;;8.30;94.00;;;;;;5062986;28;20025;-75
2021/12/10 12:52:56;;;;;;;7.10;1.95;;;8.40;94.00;;;;;;5064184;28;20296;-76
2021/12/10 12:55:53;;;;;;;5.25;1.00;;;8.40;93.80;;;;;;5063717;28;20036;-75
2021/12/10 12:58:42;;;;;;;11.98;1.17;;;8.50;93.40;;;;;;5035437;28;20063;-75
2021/12/10 13:01:21;;;;;;;6.18;1.00;;;8.40;93.50;;;;;;5064271;28;20029;-77
2021/12/10 13:04:13;;;;;;;6.00;1.20;;;8.40;93.40;;;;;;5047052;28;20024;-79
2021/12/10 13:07:02;;;;;;;7.47;1.33;;;8.40;93.30;;;;;;5064580;28;20056;-80
2021/12/10 13:09:39;;;;;;;6.28;0.80;;;8.50;93.30;;;;;;5064218;28;20056;-80
2021/12/10 13:12:12;;;;;;;10.68;1.40;;;8.60;92.90;;;;;;5063301;28;20339;-79
2021/12/10 13:14:57;;;;;;;11.35;1.33;;;8.60;92.80;;;;;;5065227;28;20336;-82
2021/12/10 13:17:29;;;;;;;5.80;1.13;;;8.50;92.70;;;;;;5063703;28;20024;-78
2021/12/10 13:19:57;;;;;;;10.48;1.70;;;8.50;92.70;;;;;;5063812;28;20020;-74
2021/12/10 13:22:26;;;;;;;20.13;1.65;;;8.40;93.40;;;;;;5063040;28;20033;-75